Mount Holly, VT

4:32 PM EDT on August 03, 2015 (GMT -0400)
Rt 155 | | Change Station
CLOSE
Current Station
Personal Weather Station
Location: East Wallingford, VT
Elevation: 1430 ft
Nearby Weather Stations
Active Advisory: Severe Thunderstorm Watch

Elev 1430 ft 43.43 °N, 72.86 °W | Updated 30 seconds ago

Overcast
Overcast
79.5 °F
Feels Like 82 °F
N
2.3
Wind Variable Wind from SE
Gusts 2.3 mph

Today
High -- | Low -- °F
--% Chance of Precip.
Yesterday
High -- | Low -- °F
Precip. -- in
5:42 AM 8:11 PM
Waning Gibbous, 84% visible
Pressure 29.70 in
Visibility 10.0 miles
Clouds Clear
Heat Index 82 °F
Dew Point 66 °F
Humidity 64%
Rainfall 0.00 in
Snow Depth Not available.
UV 5 out of 12
Pollen 5.60 out of 12
Air Quality Not available.
Flu Activity Not available.
SPECI KVSF 032030Z AUTO 20007KT 160V230 10SM VCTS CLR 30/14 A2970 RMK AO2 LTG DSNT SW-N T03000139

More Conditions Fewer Conditions

Pressure 29.70 in
Visibility 10.0 miles
Clouds Clear
Heat Index 82 °F
Dew Point 66 °F
Humidity 64%
Rainfall 0.00 in
Snow Depth Not available.
UV 5 out of 12
Pollen 5.60 out of 12
Air Quality Not available.
Flu Activity Not available.
SPECI KVSF 032030Z AUTO 20007KT 160V230 10SM VCTS CLR 30/14 A2970 RMK AO2 LTG DSNT SW-N T03000139

More Conditions Fewer Conditions

10-Day Weather Forecast

×

Almanac

Astronomy

Aug. 03, 2015 Rise Set
Actual Time
Civil Twilight
Nautical Twilight
Astronomical Twilight
Moon
Length of Visible Light
Length of Day
Tomorrow will be .
, % of the Moon is Illuminated

Today's Extremes

State Highs State Lows

Community

WunderPhotos

Upload Photos

1,843,743 photos uploaded!

WunderBlogs® & News

Nearby

Air Quality

  Air Quality AQ Index Pollutant
Not available.

Snow Depth

Station Depth Elevation

Earthquake Activity

City Distance Mag. Time & Date
Minimum magnitude displayed is 2.5.

Coastal Water Temperatures

Place Temperature

Stations

Nearby Weather Stations

Station Location Temp. Windchill Dew Point Humidity Wind Precip. Elev Updated Type
                   
Severe Thunderstorm Watch
Statement as of 4:29 PM EDT on August 03, 2015

Severe Thunderstorm Watch 466 remains in effect until 900 PM EDT

VT
. Vermont counties included are

Addison Caledonia Chittenden
Essex Franklin Grand Isle
LaMoille Orange Orleans
Rutland Washington Windsor